Time;durP1;ratioP1;P1;durP2;ratioP2;P2;SDS_P1;SDS_P2;PMS_P1;PMS_P2;Temp;Humidity;BMP_temperature;BMP_pressure;BME280_temperature;BME280_humidity;BME280_pressure;Samples;Min_cycle;Max_cycle;Signal;HPM_P1;HPM_P2
2022/08/09 00:01:30;;;;;;;4.15;1.70;;;17.70;99.90;;;;;;5035099;28;39442;-79
2022/08/09 00:03:57;;;;;;;5.47;2.10;;;17.60;99.90;;;;;;5032057;27;37685;-78
2022/08/09 00:06:24;;;;;;;5.60;1.98;;;17.60;99.90;;;;;;5027016;28;39078;-78
2022/08/09 00:08:50;;;;;;;3.53;2.08;;;17.60;99.90;;;;;;5031749;28;40027;-75
2022/08/09 00:11:18;;;;;;;5.07;2.75;;;17.60;99.90;;;;;;5039904;28;39887;-80
2022/08/09 00:13:44;;;;;;;4.55;2.40;;;17.60;99.90;;;;;;5069006;27;41156;-78
2022/08/09 00:16:10;;;;;;;2.58;1.58;;;17.60;99.90;;;;;;5035163;28;37871;-81
2022/08/09 00:18:37;;;;;;;4.97;2.38;;;17.60;99.90;;;;;;5037308;28;39744;-77
2022/08/09 00:21:05;;;;;;;3.70;2.13;;;17.50;99.90;;;;;;5065111;28;39666;-80
2022/08/09 00:23:32;;;;;;;5.30;2.40;;;17.50;99.90;;;;;;5039284;28;37915;-78
2022/08/09 00:25:58;;;;;;;5.53;2.63;;;17.50;99.90;;;;;;5040270;28;37878;-79
2022/08/09 00:28:25;;;;;;;7.25;2.35;;;17.40;99.90;;;;;;5066037;28;40624;-78
2022/08/09 00:30:51;;;;;;;4.57;2.40;;;17.40;99.90;;;;;;5036548;28;38437;-79
2022/08/09 00:33:18;;;;;;;5.53;2.30;;;17.40;99.90;;;;;;5037261;28;39021;-78
2022/08/09 00:35:44;;;;;;;3.67;2.25;;;17.40;99.90;;;;;;5042857;28;36184;-80
2022/08/09 00:38:11;;;;;;;4.25;2.40;;;17.30;99.90;;;;;;5034204;28;37516;-79
2022/08/09 00:40:38;;;;;;;6.90;2.67;;;17.30;99.90;;;;;;5033346;28;39738;-79
2022/08/09 00:43:04;;;;;;;4.05;2.72;;;17.30;99.90;;;;;;5033754;28;37119;-78
2022/08/09 00:45:31;;;;;;;5.47;3.10;;;17.30;99.90;;;;;;5043373;28;36996;-79
2022/08/09 00:47:57;;;;;;;6.05;3.17;;;17.30;99.90;;;;;;5041183;28;38386;-79
2022/08/09 00:50:23;;;;;;;3.90;2.40;;;17.30;99.90;;;;;;5032663;28;37351;-79
2022/08/09 00:52:51;;;;;;;4.03;2.72;;;17.20;99.90;;;;;;5033929;28;37134;-79
2022/08/09 00:55:18;;;;;;;7.00;2.85;;;17.20;99.90;;;;;;5029164;28;37317;-79
2022/08/09 00:57:45;;;;;;;5.50;2.67;;;17.20;99.90;;;;;;5063003;28;38075;-79
2022/08/09 01:00:12;;;;;;;3.22;2.40;;;17.20;99.90;;;;;;5060615;28;38918;-79
2022/08/09 01:02:46;;;;;;;6.38;2.70;;;17.20;99.90;;;;;;5038413;28;36918;-78
2022/08/09 01:05:37;;;;;;;4.95;2.60;;;17.20;99.90;;;;;;5037905;28;37420;-79
2022/08/09 01:08:16;;;;;;;2.38;2.15;;;17.20;99.90;;;;;;5036320;28;37383;-79
2022/08/09 01:11:19;;;;;;;5.18;2.90;;;17.10;99.90;;;;;;5036939;28;39103;-79
2022/08/09 01:14:22;;;;;;;4.55;2.72;;;17.10;99.90;;;;;;5052851;28;46950;-78
2022/08/09 01:16:51;;;;;;;5.43;2.40;;;17.10;99.90;;;;;;5045587;28;45690;-79
2022/08/09 01:19:26;;;;;;;5.28;3.05;;;17.10;99.90;;;;;;5059668;28;39942;-80
2022/08/09 01:22:30;;;;;;;5.97;3.00;;;17.00;99.90;;;;;;5032920;28;40079;-80
2022/08/09 01:25:18;;;;;;;3.83;3.20;;;17.00;99.90;;;;;;5012274;28;47906;-80
2022/08/09 01:27:50;;;;;;;5.32;3.00;;;17.00;99.90;;;;;;5030033;28;49341;-80
2022/08/09 01:30:17;;;;;;;6.88;3.95;;;17.00;99.90;;;;;;5029813;28;39498;-79
2022/08/09 01:32:45;;;;;;;4.55;2.97;;;17.00;99.90;;;;;;5039220;28;37340;-80
2022/08/09 01:35:19;;;;;;;6.90;3.63;;;17.00;99.90;;;;;;5037987;28;39177;-79
2022/08/09 01:37:47;;;;;;;5.78;3.33;;;16.90;99.90;;;;;;5044393;28;37622;-80
2022/08/09 01:40:15;;;;;;;5.47;3.38;;;16.90;99.90;;;;;;5035081;28;39532;-79
2022/08/09 01:42:42;;;;;;;4.25;2.88;;;16.90;99.90;;;;;;5034508;28;38828;-79
2022/08/09 01:45:10;;;;;;;5.43;3.40;;;16.90;99.90;;;;;;5035935;28;37561;-81
2022/08/09 01:47:38;;;;;;;5.03;3.10;;;16.90;99.90;;;;;;5042380;28;38364;-79
2022/08/09 01:50:06;;;;;;;3.83;2.80;;;16.90;99.90;;;;;;5035816;28;39218;-80
2022/08/09 01:52:34;;;;;;;3.85;2.67;;;16.80;99.90;;;;;;5036549;28;39942;-79
2022/08/09 01:55:02;;;;;;;4.63;2.72;;;16.80;99.90;;;;;;5035799;28;39574;-79
2022/08/09 01:57:36;;;;;;;4.72;2.88;;;16.70;99.90;;;;;;5039961;28;37409;-79
2022/08/09 02:00:06;;;;;;;4.45;2.58;;;16.70;99.90;;;;;;5036106;28;40121;-80
2022/08/09 02:02:37;;;;;;;5.72;2.92;;;16.70;99.90;;;;;;5035792;28;47136;-79
2022/08/09 02:05:08;;;;;;;6.10;2.88;;;16.60;99.90;;;;;;5033877;28;38810;-80
2022/08/09 02:07:38;;;;;;;5.40;3.00;;;16.60;99.90;;;;;;5038932;28;37778;-79
2022/08/09 02:10:19;;;;;;;4.35;3.17;;;16.60;99.90;;;;;;5029775;28;39550;-79
2022/08/09 02:12:47;;;;;;;4.65;3.10;;;16.60;99.90;;;;;;5035189;28;39559;-81
2022/08/09 02:15:17;;;;;;;8.57;3.33;;;16.60;99.90;;;;;;5039145;28;39127;-80
2022/08/09 02:17:45;;;;;;;4.15;2.88;;;16.60;99.90;;;;;;5052991;28;37636;-80
2022/08/09 02:20:11;;;;;;;7.28;3.30;;;16.60;99.90;;;;;;5040761;28;38760;-79
2022/08/09 02:22:49;;;;;;;4.65;3.08;;;16.60;99.90;;;;;;5074482;28;39792;-81
2022/08/09 02:25:30;;;;;;;6.07;3.00;;;16.50;99.90;;;;;;5038491;28;37755;-78
2022/08/09 02:28:06;;;;;;;3.88;3.47;;;16.50;99.90;;;;;;5033909;28;37194;-81
2022/08/09 02:30:39;;;;;;;5.15;3.45;;;16.50;99.90;;;;;;5050498;28;45916;-81
2022/08/09 02:33:06;;;;;;;7.13;3.50;;;16.50;99.90;;;;;;5034598;28;39338;-81
2022/08/09 02:35:35;;;;;;;6.65;3.55;;;16.40;99.90;;;;;;5025809;28;37930;-80
2022/08/09 02:38:03;;;;;;;6.32;3.15;;;16.40;99.90;;;;;;5015348;28;37808;-82
2022/08/09 02:40:30;;;;;;;5.65;3.10;;;16.40;99.90;;;;;;5032933;28;38045;-82
2022/08/09 02:42:59;;;;;;;5.32;3.42;;;16.40;99.90;;;;;;5019107;28;39199;-81
2022/08/09 02:45:30;;;;;;;5.40;3.20;;;16.40;99.90;;;;;;5015016;28;38680;-81
2022/08/09 02:48:01;;;;;;;4.63;3.17;;;16.40;99.90;;;;;;5009543;28;38033;-79
2022/08/09 02:50:33;;;;;;;3.83;2.97;;;16.30;99.90;;;;;;5032257;28;48420;-79
2022/08/09 02:53:03;;;;;;;7.00;3.83;;;16.30;99.90;;;;;;5052707;28;38709;-79
2022/08/09 02:55:31;;;;;;;7.63;3.60;;;16.30;99.90;;;;;;5026103;28;46683;-79
2022/08/09 02:57:59;;;;;;;8.02;4.07;;;16.30;99.90;;;;;;5035551;28;38031;-81
2022/08/09 03:00:27;;;;;;;7.60;4.07;;;16.20;99.90;;;;;;5034759;28;39623;-80
2022/08/09 03:02:55;;;;;;;4.90;3.90;;;16.20;99.90;;;;;;5031739;27;38818;-80
2022/08/09 03:05:22;;;;;;;4.82;3.30;;;16.20;99.90;;;;;;5031898;28;39850;-79
2022/08/09 03:07:50;;;;;;;7.68;3.85;;;16.20;99.90;;;;;;5034986;28;39405;-81
2022/08/09 03:10:17;;;;;;;8.70;3.47;;;16.10;99.90;;;;;;5040272;28;38704;-81
2022/08/09 03:12:44;;;;;;;5.57;3.40;;;16.10;99.90;;;;;;5040621;28;38235;-80
2022/08/09 03:15:12;;;;;;;6.10;3.88;;;16.20;99.90;;;;;;5036073;28;39448;-81
2022/08/09 03:17:38;;;;;;;4.47;3.90;;;16.10;99.90;;;;;;5065466;28;38989;-81
2022/08/09 03:20:07;;;;;;;3.92;3.53;;;16.10;99.90;;;;;;5033730;28;38433;-82
2022/08/09 03:22:39;;;;;;;4.57;3.45;;;16.10;99.90;;;;;;5025092;28;37348;-80
2022/08/09 03:25:06;;;;;;;;;;;16.10;99.90;;;;;;5021640;28;38248;-82
2022/08/09 03:27:34;;;;;;;5.53;3.55;;;16.10;99.90;;;;;;5022155;28;37916;-81
2022/08/09 03:30:01;;;;;;;5.68;4.05;;;16.10;99.90;;;;;;5027071;28;40023;-80
2022/08/09 03:32:32;;;;;;;5.45;3.38;;;16.10;99.90;;;;;;5017609;28;39869;-80
2022/08/09 03:34:59;;;;;;;5.32;4.35;;;16.10;99.90;;;;;;5053039;28;38767;-81
2022/08/09 03:37:27;;;;;;;6.38;3.88;;;16.00;99.90;;;;;;5053241;28;37391;-83
2022/08/09 03:39:53;;;;;;;5.85;4.22;;;16.00;99.90;;;;;;5019018;28;40666;-80
2022/08/09 03:42:19;;;;;;;5.90;4.45;;;16.00;99.90;;;;;;5014575;28;39342;-79
2022/08/09 03:44:46;;;;;;;5.75;4.10;;;16.00;99.90;;;;;;5018658;28;38026;-81
2022/08/09 03:47:12;;;;;;;6.22;4.72;;;16.00;99.90;;;;;;5023474;28;37148;-80
2022/08/09 03:49:39;;;;;;;5.63;4.30;;;15.90;99.90;;;;;;5050416;28;38810;-81
2022/08/09 03:52:07;;;;;;;5.78;3.97;;;15.90;99.90;;;;;;5018118;28;38225;-80
2022/08/09 03:54:39;;;;;;;8.07;4.20;;;15.90;99.90;;;;;;5019383;28;38410;-83
2022/08/09 03:57:10;;;;;;;7.28;4.97;;;15.90;99.90;;;;;;5031626;28;39535;-83
2022/08/09 03:59:37;;;;;;;6.60;4.85;;;15.90;99.90;;;;;;5018745;28;39996;-82
2022/08/09 04:02:04;;;;;;;5.25;4.22;;;15.90;99.90;;;;;;5044713;28;40557;-80
2022/08/09 04:04:31;;;;;;;5.93;4.55;;;15.90;99.90;;;;;;5037749;28;37463;-81
2022/08/09 04:06:57;;;;;;;7.80;4.43;;;15.90;99.90;;;;;;5037121;28;36986;-82
2022/08/09 04:09:24;;;;;;;6.38;4.45;;;15.90;99.90;;;;;;5036623;28;39547;-81
2022/08/09 04:12:01;;;;;;;4.82;4.00;;;15.80;99.90;;;;;;5040992;28;39646;-79
2022/08/09 04:14:27;;;;;;;7.72;4.60;;;15.80;99.90;;;;;;5037669;28;48147;-81
2022/08/09 04:16:53;;;;;;;6.05;5.00;;;15.90;99.90;;;;;;5040166;28;38639;-83
2022/08/09 04:19:20;;;;;;;5.85;4.47;;;15.80;99.90;;;;;;5038812;27;38396;-80
2022/08/09 04:21:46;;;;;;;6.95;4.45;;;15.90;99.90;;;;;;5036563;28;39817;-78
2022/08/09 04:24:12;;;;;;;13.00;6.22;;;15.90;99.90;;;;;;5036918;28;38888;-80
2022/08/09 04:26:38;;;;;;;7.70;5.32;;;15.90;99.90;;;;;;5029542;28;37407;-81
2022/08/09 04:29:04;;;;;;;5.53;4.57;;;16.00;99.90;;;;;;5039126;28;41625;-81
2022/08/09 04:31:30;;;;;;;8.18;5.47;;;15.90;99.90;;;;;;5037761;28;38130;-83
2022/08/09 04:33:57;;;;;;;6.97;5.43;;;16.00;99.90;;;;;;5067196;28;38617;-85
2022/08/09 04:36:25;;;;;;;9.10;5.95;;;15.90;99.90;;;;;;5041877;28;37957;-83
2022/08/09 04:38:57;;;;;;;7.93;5.22;;;15.90;99.90;;;;;;5034240;28;37005;-79
2022/08/09 04:41:24;;;;;;;6.30;5.70;;;16.00;99.90;;;;;;5059537;28;40091;-79
2022/08/09 04:43:53;;;;;;;9.60;6.10;;;16.00;99.90;;;;;;5064607;28;40030;-82
2022/08/09 04:46:20;;;;;;;10.82;5.72;;;15.90;99.90;;;;;;5037276;28;37425;-80
2022/08/09 04:48:47;;;;;;;10.75;6.82;;;16.00;99.90;;;;;;5037303;28;39505;-81
2022/08/09 04:51:13;;;;;;;9.25;5.43;;;15.90;99.90;;;;;;5037495;28;38604;-80
2022/08/09 04:53:39;;;;;;;8.93;7.00;;;15.90;99.90;;;;;;5046957;28;38630;-79
2022/08/09 04:56:06;;;;;;;9.70;7.05;;;15.90;99.90;;;;;;5040577;28;37531;-79
2022/08/09 04:58:33;;;;;;;10.30;7.03;;;15.90;99.90;;;;;;5075192;28;39194;-80
2022/08/09 05:01:00;;;;;;;9.68;7.20;;;15.90;99.90;;;;;;5036468;28;40274;-80
2022/08/09 05:03:27;;;;;;;12.32;8.15;;;15.90;99.90;;;;;;5039607;28;36078;-80
2022/08/09 05:05:53;;;;;;;11.57;7.72;;;15.90;99.90;;;;;;5030317;28;37431;-80
2022/08/09 05:08:19;;;;;;;11.57;9.05;;;16.00;99.90;;;;;;5041691;28;38911;-80
2022/08/09 05:10:45;;;;;;;8.63;7.72;;;16.00;99.90;;;;;;5066433;28;38579;-80
2022/08/09 05:13:12;;;;;;;10.75;8.15;;;16.10;99.90;;;;;;5031377;28;38116;-80
2022/08/09 05:15:38;;;;;;;11.00;8.00;;;16.10;99.90;;;;;;5066961;28;37957;-79
2022/08/09 05:18:04;;;;;;;13.73;9.07;;;16.20;99.90;;;;;;5032986;28;40503;-79
2022/08/09 05:20:30;;;;;;;9.40;6.85;;;16.10;99.90;;;;;;5029253;28;39669;-80
2022/08/09 05:22:57;;;;;;;10.60;7.70;;;16.10;99.90;;;;;;5031073;28;39007;-79
2022/08/09 05:25:23;;;;;;;11.68;7.55;;;16.10;99.90;;;;;;5059057;28;37615;-80
2022/08/09 05:27:50;;;;;;;10.07;7.50;;;16.20;99.90;;;;;;5056039;28;40374;-79
2022/08/09 05:30:17;;;;;;;7.05;6.20;;;16.20;99.90;;;;;;5063986;28;38633;-79
2022/08/09 05:32:44;;;;;;;9.38;7.00;;;16.20;99.90;;;;;;5030800;28;39134;-79
2022/08/09 05:35:10;;;;;;;9.52;8.07;;;16.20;99.90;;;;;;5026238;28;36399;-80
2022/08/09 05:37:37;;;;;;;10.90;7.25;;;16.30;99.90;;;;;;5035565;28;39849;-79
2022/08/09 05:40:04;;;;;;;10.32;7.68;;;16.30;99.90;;;;;;5033932;28;39543;-81
2022/08/09 05:42:30;;;;;;;10.70;6.97;;;16.30;99.90;;;;;;5059222;28;47989;-80
2022/08/09 05:44:56;;;;;;;9.32;6.75;;;16.40;99.90;;;;;;5047099;28;38268;-80
2022/08/09 05:47:24;;;;;;;11.57;7.80;;;16.40;99.90;;;;;;5042027;28;39697;-78
2022/08/09 05:49:54;;;;;;;14.20;7.75;;;16.50;99.90;;;;;;5038213;28;39449;-79
2022/08/09 05:52:22;;;;;;;10.70;7.45;;;16.50;99.90;;;;;;5035655;28;39133;-79
2022/08/09 05:54:48;;;;;;;10.70;6.75;;;16.50;99.90;;;;;;5030099;28;38649;-78
2022/08/09 05:57:15;;;;;;;11.50;6.68;;;16.60;99.90;;;;;;5043087;28;39059;-78
2022/08/09 05:59:41;;;;;;;10.68;7.05;;;16.60;99.90;;;;;;5075224;28;38274;-80
2022/08/09 06:02:08;;;;;;;11.00;6.05;;;16.70;99.90;;;;;;5042679;28;39625;-80
2022/08/09 06:04:35;;;;;;;9.25;5.95;;;16.80;99.90;;;;;;5077713;28;37559;-79
2022/08/09 06:07:02;;;;;;;8.82;6.03;;;16.80;99.90;;;;;;5035458;28;40340;-79
2022/08/09 06:09:29;;;;;;;7.55;5.53;;;16.80;99.90;;;;;;5037010;28;38940;-78
2022/08/09 06:11:55;;;;;;;8.70;4.70;;;16.90;99.90;;;;;;5075947;28;40294;-82
2022/08/09 06:14:21;;;;;;;6.80;4.97;;;16.90;99.90;;;;;;5045678;28;37790;-80
2022/08/09 06:16:47;;;;;;;6.82;4.40;;;16.90;99.90;;;;;;5077157;28;40207;-80
2022/08/09 06:19:13;;;;;;;7.30;5.22;;;17.00;99.90;;;;;;5038461;28;39194;-81
2022/08/09 06:21:40;;;;;;;6.53;4.43;;;17.10;99.90;;;;;;5039574;28;39057;-80
2022/08/09 06:24:07;;;;;;;7.63;3.78;;;17.10;99.90;;;;;;5075208;28;37046;-79
2022/08/09 06:26:35;;;;;;;6.78;3.83;;;17.20;99.90;;;;;;5045951;28;39841;-81
2022/08/09 06:29:01;;;;;;;9.25;4.20;;;17.30;99.90;;;;;;5073697;28;39059;-80
2022/08/09 06:31:29;;;;;;;7.45;4.95;;;17.40;99.90;;;;;;5042020;28;48859;-81
2022/08/09 06:33:55;;;;;;;8.80;4.70;;;17.40;99.90;;;;;;5028510;28;36491;-79
2022/08/09 06:36:21;;;;;;;9.45;4.47;;;17.60;99.90;;;;;;5070808;28;39539;-80
2022/08/09 06:38:47;;;;;;;9.93;4.78;;;17.70;99.90;;;;;;5040123;28;39005;-79
2022/08/09 06:41:15;;;;;;;8.27;4.35;;;17.80;99.90;;;;;;5038603;28;37568;-78
2022/08/09 06:43:41;;;;;;;7.20;5.18;;;18.00;99.90;;;;;;5043232;28;36987;-76
2022/08/09 06:46:07;;;;;;;8.05;4.25;;;18.20;99.90;;;;;;5080178;27;40184;-83
2022/08/09 06:48:34;;;;;;;4.88;3.85;;;18.40;99.90;;;;;;5042000;28;37990;-81
2022/08/09 06:51:00;;;;;;;6.50;4.82;;;18.50;99.90;;;;;;5043137;28;39073;-79
2022/08/09 06:53:26;;;;;;;6.97;4.07;;;18.70;99.90;;;;;;5046856;28;39154;-80
2022/08/09 06:55:52;;;;;;;5.90;3.53;;;18.80;99.90;;;;;;5041348;28;39688;-78
2022/08/09 06:58:19;;;;;;;10.30;3.35;;;19.00;99.90;;;;;;5035458;27;40007;-76
2022/08/09 07:00:45;;;;;;;5.07;3.28;;;19.30;99.90;;;;;;5034618;28;38945;-77
2022/08/09 07:03:11;;;;;;;5.25;3.03;;;19.60;99.90;;;;;;5037241;28;38167;-77
2022/08/09 07:05:37;;;;;;;5.75;3.28;;;19.80;99.90;;;;;;5030020;28;40587;-78
2022/08/09 07:08:05;;;;;;;4.50;2.60;;;19.90;99.90;;;;;;5041999;28;39219;-77
2022/08/09 07:10:32;;;;;;;8.95;2.88;;;20.00;99.90;;;;;;5038753;28;38194;-81
2022/08/09 07:12:59;;;;;;;6.40;2.58;;;20.30;99.90;;;;;;5041239;28;37786;-78
2022/08/09 07:15:25;;;;;;;6.82;2.72;;;20.60;99.90;;;;;;5031416;28;38544;-78
2022/08/09 07:17:52;;;;;;;4.03;2.50;;;20.80;99.90;;;;;;5074903;28;39994;-79
2022/08/09 07:20:18;;;;;;;7.95;3.03;;;20.80;99.90;;;;;;5064889;28;37098;-78
2022/08/09 07:22:45;;;;;;;4.20;2.80;;;21.00;99.90;;;;;;5029744;28;38182;-77
2022/08/09 07:25:11;;;;;;;5.82;2.47;;;21.10;99.90;;;;;;5035019;28;39645;-77
2022/08/09 07:27:38;;;;;;;4.93;2.10;;;21.20;99.90;;;;;;5042902;28;38843;-77
2022/08/09 07:30:05;;;;;;;5.57;2.33;;;21.30;99.90;;;;;;5033384;28;38499;-78
2022/08/09 07:32:31;;;;;;;2.97;2.30;;;21.50;99.90;;;;;;5037503;28;37692;-79
2022/08/09 07:34:57;;;;;;;3.55;1.88;;;21.80;99.90;;;;;;5056703;28;39695;-81
2022/08/09 07:37:23;;;;;;;4.88;2.30;;;21.80;99.90;;;;;;5033054;28;39089;-77
2022/08/09 07:39:49;;;;;;;2.22;1.40;;;21.80;99.90;;;;;;5042841;28;38688;-78
2022/08/09 07:42:16;;;;;;;5.57;1.98;;;22.00;99.90;;;;;;5027122;28;37322;-76
2022/08/09 07:44:42;;;;;;;3.22;1.63;;;22.00;99.90;;;;;;5057697;28;39915;-78
2022/08/09 07:47:08;;;;;;;4.43;1.70;;;22.10;99.90;;;;;;5026377;28;39418;-77
2022/08/09 07:49:34;;;;;;;3.30;1.45;;;22.30;99.90;;;;;;5062104;28;39394;-80
2022/08/09 07:52:00;;;;;;;7.22;1.30;;;22.40;99.90;;;;;;5031645;28;36273;-78
2022/08/09 07:54:29;;;;;;;2.70;1.15;;;22.60;99.90;;;;;;4999668;28;42315;-79
2022/08/09 07:56:56;;;;;;;2.03;1.20;;;22.80;99.90;;;;;;5042557;28;38491;-79
2022/08/09 07:59:22;;;;;;;3.95;1.30;;;22.50;99.90;;;;;;5022789;28;39071;-79
2022/08/09 08:01:48;;;;;;;3.65;1.20;;;22.60;99.90;;;;;;5052226;28;39344;-79
2022/08/09 08:04:15;;;;;;;4.03;1.10;;;22.80;99.90;;;;;;5051488;28;39721;-79
2022/08/09 08:06:41;;;;;;;4.55;0.98;;;22.90;99.90;;;;;;4996624;28;38655;-79
2022/08/09 08:09:07;;;;;;;2.35;1.20;;;23.10;99.90;;;;;;5012061;28;37623;-81
2022/08/09 08:11:33;;;;;;;2.17;1.30;;;23.30;99.90;;;;;;5056700;28;38711;-80
2022/08/09 08:13:59;;;;;;;2.00;0.90;;;23.40;99.90;;;;;;5040176;28;40440;-80
2022/08/09 08:16:26;;;;;;;2.80;1.00;;;23.50;99.90;;;;;;5064132;28;39611;-80
2022/08/09 08:18:52;;;;;;;4.05;1.05;;;23.70;99.90;;;;;;5038800;28;38707;-81
2022/08/09 08:21:18;;;;;;;3.63;1.55;;;23.60;99.90;;;;;;5040084;28;35459;-82
2022/08/09 08:23:44;;;;;;;3.13;1.10;;;23.70;99.90;;;;;;5029211;28;38877;-78
2022/08/09 08:26:11;;;;;;;2.33;1.00;;;23.80;99.90;;;;;;5036559;28;38818;-78
2022/08/09 08:28:37;;;;;;;2.83;1.30;;;23.70;99.90;;;;;;5031170;28;39054;-78
2022/08/09 08:31:03;;;;;;;4.47;1.25;;;23.50;99.90;;;;;;5036990;28;37348;-78
2022/08/09 08:33:29;;;;;;;3.03;1.27;;;23.70;99.90;;;;;;5034024;28;38564;-78
2022/08/09 08:35:55;;;;;;;3.67;1.15;;;23.90;99.90;;;;;;5035041;28;39033;-80
2022/08/09 08:38:21;;;;;;;5.90;1.17;;;24.00;99.90;;;;;;5030199;28;37661;-77
2022/08/09 08:40:48;;;;;;;2.88;1.20;;;24.40;99.90;;;;;;5058733;28;37973;-79
2022/08/09 08:43:15;;;;;;;1.15;0.90;;;24.50;99.90;;;;;;5036654;28;39208;-77
2022/08/09 08:45:53;;;;;;;3.05;0.80;;;24.50;99.90;;;;;;5004480;28;38532;-77
2022/08/09 08:48:21;;;;;;;4.32;1.38;;;24.70;99.90;;;;;;5042230;28;38555;-76
2022/08/09 08:50:48;;;;;;;3.75;1.08;;;24.50;99.90;;;;;;5017794;28;36926;-76
2022/08/09 08:53:15;;;;;;;2.70;0.90;;;24.30;99.90;;;;;;5020637;28;39202;-76
2022/08/09 08:55:42;;;;;;;2.47;1.25;;;24.30;99.90;;;;;;5007844;28;37390;-79
2022/08/09 08:58:11;;;;;;;1.27;0.70;;;24.20;99.90;;;;;;5020812;28;38100;-77
2022/08/09 09:00:40;;;;;;;3.58;1.20;;;24.30;99.90;;;;;;5021026;28;36227;-77
2022/08/09 09:03:06;;;;;;;2.10;0.85;;;24.40;99.90;;;;;;5015471;28;38189;-77
2022/08/09 09:05:33;;;;;;;3.50;0.88;;;24.50;99.90;;;;;;5014477;28;39810;-81
2022/08/09 09:08:02;;;;;;;2.13;0.77;;;24.30;99.90;;;;;;5039472;28;38879;-76
2022/08/09 09:10:30;;;;;;;2.95;1.00;;;24.10;99.90;;;;;;5050419;28;47416;-76
2022/08/09 09:12:56;;;;;;;2.58;0.98;;;24.50;99.90;;;;;;5050928;27;39097;-77
2022/08/09 09:15:23;;;;;;;3.33;0.68;;;24.70;99.90;;;;;;5013183;28;39155;-77
2022/08/09 09:17:49;;;;;;;2.30;1.10;;;25.00;99.90;;;;;;5012080;28;39871;-75
2022/08/09 09:20:15;;;;;;;1.50;0.43;;;25.20;99.90;;;;;;5018761;28;37957;-76
2022/08/09 09:22:55;;;;;;;1.92;0.70;;;25.20;99.90;;;;;;5021108;28;39347;-76
2022/08/09 09:25:42;;;;;;;2.35;0.82;;;25.40;99.90;;;;;;5017588;28;42031;-75
2022/08/09 09:28:10;;;;;;;3.33;0.85;;;25.40;99.90;;;;;;5021450;28;38430;-75
2022/08/09 09:30:55;;;;;;;6.00;1.02;;;25.50;99.90;;;;;;5015018;28;38314;-75
2022/08/09 09:33:34;;;;;;;4.47;0.80;;;25.70;99.90;;;;;;5007999;28;39322;-76
2022/08/09 09:36:06;;;;;;;1.08;0.50;;;25.90;99.90;;;;;;5016729;28;39501;-76
2022/08/09 09:38:49;;;;;;;4.15;0.47;;;26.10;99.90;;;;;;5024695;28;49610;-75
2022/08/09 09:41:27;;;;;;;1.77;0.50;;;26.10;99.90;;;;;;5040827;28;38678;-75
2022/08/09 09:43:59;;;;;;;1.60;0.60;;;26.10;99.90;;;;;;5012624;28;38340;-78
2022/08/09 09:46:31;;;;;;;1.83;0.80;;;26.30;99.90;;;;;;5034549;28;40360;-75
2022/08/09 09:49:11;;;;;;;3.58;0.65;;;26.40;99.90;;;;;;5038631;28;39704;-76
2022/08/09 09:51:39;;;;;;;0.43;0.40;;;26.50;99.90;;;;;;5034864;28;48604;-78
2022/08/09 09:54:11;;;;;;;1.95;0.70;;;26.60;99.90;;;;;;5036431;28;39066;-76
2022/08/09 09:56:40;;;;;;;2.03;0.80;;;26.70;99.90;;;;;;5033849;28;39567;-75
2022/08/09 09:59:07;;;;;;;0.80;0.40;;;26.80;99.90;;;;;;5040151;28;38231;-76
2022/08/09 10:01:34;;;;;;;4.72;0.63;;;26.90;99.90;;;;;;5032256;28;39130;-78
2022/08/09 10:04:01;;;;;;;1.15;0.50;;;26.90;99.90;;;;;;5031404;28;39288;-77
2022/08/09 10:06:40;;;;;;;3.30;0.47;;;26.70;99.90;;;;;;5070021;28;47146;-77
2022/08/09 10:09:07;;;;;;;1.02;0.60;;;26.80;99.90;;;;;;5073177;28;36859;-77
2022/08/09 10:11:34;;;;;;;1.10;0.50;;;26.90;99.90;;;;;;5050630;28;36046;-76
2022/08/09 10:14:02;;;;;;;1.38;0.57;;;27.00;99.90;;;;;;5037759;28;36824;-78
2022/08/09 10:16:33;;;;;;;1.42;0.57;;;26.70;99.90;;;;;;5039097;28;47119;-76
2022/08/09 10:19:02;;;;;;;1.80;0.40;;;26.60;99.90;;;;;;5041110;28;37891;-76
2022/08/09 10:21:28;;;;;;;1.25;0.30;;;26.60;99.90;;;;;;5034224;28;48467;-78
2022/08/09 10:23:56;;;;;;;1.33;0.40;;;26.70;99.90;;;;;;5035652;27;39174;-76
2022/08/09 10:26:24;;;;;;;1.45;0.75;;;26.90;99.90;;;;;;5033252;28;39436;-76
2022/08/09 10:28:50;;;;;;;1.15;0.55;;;26.50;99.90;;;;;;5040196;28;38188;-76
2022/08/09 10:31:17;;;;;;;1.73;0.60;;;26.70;99.90;;;;;;5031311;28;37152;-79
2022/08/09 10:33:46;;;;;;;1.17;0.70;;;26.60;99.90;;;;;;5026051;28;40110;-75
2022/08/09 10:36:13;;;;;;;5.38;0.40;;;26.20;99.90;;;;;;5036167;28;39076;-77
2022/08/09 10:38:43;;;;;;;2.80;0.50;;;26.00;99.90;;;;;;5067459;28;36948;-79
2022/08/09 10:41:10;;;;;;;0.93;0.43;;;26.20;99.90;;;;;;5029540;28;36052;-77
2022/08/09 10:43:50;;;;;;;1.27;0.30;;;26.50;99.90;;;;;;5025609;28;39673;-77
2022/08/09 10:46:35;;;;;;;1.25;0.35;;;26.60;99.90;;;;;;5035747;28;38297;-76
2022/08/09 10:49:23;;;;;;;2.00;0.50;;;26.80;99.90;;;;;;5048757;28;37028;-75
2022/08/09 10:51:57;;;;;;;2.28;0.55;;;26.90;99.90;;;;;;5065473;28;47308;-77
2022/08/09 10:54:25;;;;;;;1.15;0.60;;;27.10;99.90;;;;;;5037887;27;38260;-76
2022/08/09 10:57:14;;;;;;;1.42;0.50;;;27.40;99.90;;;;;;5063692;28;37350;-76
2022/08/09 10:59:41;;;;;;;2.42;0.63;;;27.60;99.90;;;;;;5056177;28;48949;-80
2022/08/09 11:02:15;;;;;;;2.38;0.40;;;27.60;99.90;;;;;;5039557;28;37283;-76
2022/08/09 11:04:42;;;;;;;1.65;0.50;;;27.70;99.90;;;;;;5038950;28;38215;-79
2022/08/09 11:07:08;;;;;;;2.20;0.40;;;27.80;99.90;;;;;;5073755;27;39718;-79
2022/08/09 11:09:37;;;;;;;1.27;0.57;;;27.80;99.90;;;;;;5054568;28;38659;-77
2022/08/09 11:12:39;;;;;;;1.15;0.40;;;28.00;99.90;;;;;;5043854;27;39329;-77
2022/08/09 11:15:24;;;;;;;2.20;0.75;;;27.80;99.90;;;;;;5015060;28;38628;-78
2022/08/09 11:17:54;;;;;;;0.85;0.40;;;27.60;99.90;;;;;;5032918;28;47139;-77
2022/08/09 11:20:43;;;;;;;2.72;0.50;;;27.40;99.90;;;;;;5034499;28;38955;-78
2022/08/09 11:23:10;;;;;;;1.35;0.40;;;27.90;99.90;;;;;;5043421;28;37093;-77
2022/08/09 11:25:45;;;;;;;1.85;0.40;;;28.00;99.90;;;;;;5092050;27;39058;-76
2022/08/09 11:28:32;;;;;;;1.98;0.55;;;28.30;99.90;;;;;;5047070;27;38777;-77
2022/08/09 11:31:22;;;;;;;1.63;0.50;;;28.50;99.90;;;;;;5028738;28;37993;-78
2022/08/09 11:33:53;;;;;;;2.80;0.65;;;28.50;99.90;;;;;;5053528;28;47515;-78
2022/08/09 11:36:21;;;;;;;3.40;0.55;;;28.50;99.90;;;;;;5056118;27;37954;-78
2022/08/09 11:39:00;;;;;;;1.48;0.60;;;28.60;99.90;;;;;;5050143;28;37498;-78
2022/08/09 11:41:28;;;;;;;1.17;0.50;;;28.60;99.90;;;;;;5032658;28;37707;-81
2022/08/09 11:43:55;;;;;;;0.77;0.50;;;28.50;99.90;;;;;;5043523;28;37321;-78
2022/08/09 11:46:22;;;;;;;1.02;0.50;;;28.50;99.90;;;;;;5043282;28;37726;-77
2022/08/09 11:48:56;;;;;;;1.42;0.60;;;28.50;99.90;;;;;;5031017;28;38378;-79
2022/08/09 11:51:24;;;;;;;3.60;0.68;;;28.80;99.90;;;;;;5037642;28;38515;-77
2022/08/09 11:54:14;;;;;;;1.38;0.40;;;28.60;99.90;;;;;;5051014;27;35593;-79
2022/08/09 11:56:40;;;;;;;2.03;0.63;;;28.70;99.90;;;;;;5045604;28;47490;-77
2022/08/09 11:59:08;;;;;;;3.72;0.60;;;28.70;99.90;;;;;;5034085;27;39808;-79
2022/08/09 12:01:35;;;;;;;1.30;0.50;;;28.50;99.90;;;;;;5030847;28;36775;-79
2022/08/09 12:04:07;;;;;;;1.00;0.63;;;28.60;99.90;;;;;;5039627;28;40862;-78
2022/08/09 12:06:34;;;;;;;;;;;28.40;99.90;;;;;;5032935;28;39330;-79
2022/08/09 12:09:06;;;;;;;2.70;0.70;;;28.40;99.90;;;;;;5041541;28;38728;-78
2022/08/09 12:11:32;;;;;;;1.15;0.50;;;28.50;99.90;;;;;;5037833;28;49000;-78
2022/08/09 12:14:05;;;;;;;1.50;0.68;;;28.70;99.90;;;;;;5074067;28;20100;-77
2022/08/09 12:16:36;;;;;;;2.25;0.50;;;28.80;99.90;;;;;;5046384;28;47051;-77
2022/08/09 12:19:04;;;;;;;0.85;0.45;;;28.80;99.90;;;;;;5035746;28;39349;-78
2022/08/09 12:21:33;;;;;;;1.88;0.60;;;29.00;99.90;;;;;;5027683;28;39022;-78
2022/08/09 12:24:03;;;;;;;1.10;0.50;;;28.90;99.90;;;;;;5019868;28;37294;-78
2022/08/09 12:26:42;;;;;;;2.58;0.73;;;28.80;99.90;;;;;;5024257;28;47175;-79
2022/08/09 12:29:13;;;;;;;1.83;0.68;;;28.40;99.90;;;;;;5058114;28;39998;-77
2022/08/09 12:31:39;;;;;;;1.17;0.50;;;28.60;99.90;;;;;;5022174;28;36913;-78
2022/08/09 12:34:05;;;;;;;2.72;0.70;;;28.40;99.90;;;;;;5017618;27;39885;-79
2022/08/09 12:36:31;;;;;;;2.97;0.70;;;28.60;99.90;;;;;;5016364;28;39179;-78
2022/08/09 12:38:58;;;;;;;1.33;0.50;;;28.80;99.90;;;;;;5016289;28;38819;-78
2022/08/09 12:41:30;;;;;;;1.75;0.52;;;28.50;99.90;;;;;;5018663;28;38274;-78
2022/08/09 12:43:59;;;;;;;1.38;0.60;;;28.70;99.90;;;;;;5029714;28;36689;-80
2022/08/09 12:46:26;;;;;;;2.05;0.82;;;28.70;99.90;;;;;;5050103;28;40104;-78
2022/08/09 12:48:54;;;;;;;1.15;0.60;;;28.80;99.90;;;;;;5014053;28;38111;-77
2022/08/09 12:51:22;;;;;;;2.42;0.70;;;29.00;99.90;;;;;;5022131;28;36925;-77
2022/08/09 12:53:59;;;;;;;2.28;0.80;;;28.90;99.90;;;;;;5011514;28;38318;-80
2022/08/09 12:56:26;;;;;;;1.20;0.80;;;28.90;99.90;;;;;;5024339;28;38780;-77